Time;durP1;ratioP1;P1;durP2;ratioP2;P2;SDS_P1;SDS_P2;PMS_P1;PMS_P2;Temp;Humidity;BMP_temperature;BMP_pressure;BME280_temperature;BME280_humidity;BME280_pressure;Samples;Min_cycle;Max_cycle;Signal;HPM_P1;HPM_P2
2022/10/22 00:00:14;;;;;;;0.60;0.10;;;16.10;1.00;;;;;;4954659;29;20535;-75
2022/10/22 00:02:42;;;;;;;0.60;0.10;;;16.10;1.00;;;;;;4952170;29;20436;-75
2022/10/22 00:05:10;;;;;;;0.60;0.10;;;16.10;1.00;;;;;;4950654;29;20483;-74
2022/10/22 00:07:38;;;;;;;0.60;0.20;;;16.10;1.00;;;;;;4945470;29;20519;-74
2022/10/22 00:10:08;;;;;;;0.60;0.10;;;16.10;1.00;;;;;;4943435;29;20468;-75
2022/10/22 00:12:37;;;;;;;0.60;0.10;;;16.10;1.00;;;;;;4960529;29;20470;-74
2022/10/22 00:15:07;;;;;;;0.60;0.10;;;16.10;1.00;;;;;;4935437;29;20456;-75
2022/10/22 00:17:35;;;;;;;0.60;0.17;;;16.10;1.00;;;;;;4938189;29;20486;-73
2022/10/22 00:20:04;;;;;;;0.60;0.10;;;16.10;1.00;;;;;;4939926;29;20482;-76
2022/10/22 00:22:32;;;;;;;0.60;0.10;;;16.20;1.00;;;;;;4939732;29;20451;-76
2022/10/22 00:25:00;;;;;;;0.60;0.10;;;16.20;1.00;;;;;;4936571;29;20535;-74
2022/10/22 00:27:28;;;;;;;0.60;0.10;;;16.20;1.00;;;;;;4936455;29;20512;-76
2022/10/22 00:29:57;;;;;;;0.60;0.10;;;16.20;1.00;;;;;;4936067;29;20523;-75
2022/10/22 00:32:25;;;;;;;0.60;0.10;;;16.20;1.00;;;;;;4919609;29;20460;-76
2022/10/22 00:34:52;;;;;;;0.60;0.10;;;16.20;1.00;;;;;;4936432;29;20447;-75
2022/10/22 00:37:20;;;;;;;0.60;0.10;;;16.20;1.00;;;;;;4923652;29;20960;-75
2022/10/22 00:39:48;;;;;;;0.60;0.10;;;16.20;1.00;;;;;;4937326;29;20475;-73
2022/10/22 00:42:19;;;;;;;0.60;0.10;;;16.30;1.00;;;;;;4926061;29;20456;-76
2022/10/22 00:45:16;;;;;;;0.60;0.10;;;16.30;1.00;;;;;;4919120;29;20491;-74
2022/10/22 00:47:49;;;;;;;0.50;0.10;;;16.20;1.00;;;;;;4919033;29;20538;-75
2022/10/22 00:50:23;;;;;;;0.60;0.10;;;16.20;1.00;;;;;;4919033;29;20513;-76
2022/10/22 00:52:51;;;;;;;0.60;0.10;;;16.20;1.00;;;;;;4919206;29;20531;-75
2022/10/22 00:55:20;;;;;;;0.60;0.20;;;16.20;1.00;;;;;;4929601;29;20857;-76
2022/10/22 00:57:48;;;;;;;0.60;0.10;;;16.10;1.00;;;;;;4940961;29;20515;-75
2022/10/22 01:00:18;;;;;;;0.60;0.10;;;16.10;1.00;;;;;;4936792;29;20485;-75
2022/10/22 01:02:47;;;;;;;0.60;0.10;;;16.10;1.00;;;;;;4920394;29;20512;-75
2022/10/22 01:05:15;;;;;;;0.60;0.10;;;16.10;1.00;;;;;;4918216;29;20503;-75
2022/10/22 01:07:45;;;;;;;0.60;0.20;;;;;;;;;;4918267;29;20453;-74
2022/10/22 01:10:24;;;;;;;0.60;0.10;;;16.10;1.00;;;;;;4926594;29;20456;-75
2022/10/22 01:13:01;;;;;;;0.60;0.10;;;16.10;1.00;;;;;;4957674;29;20514;-75
2022/10/22 01:15:42;;;;;;;0.60;0.13;;;16.10;1.00;;;;;;4956166;29;20445;-75
2022/10/22 01:18:17;;;;;;;0.60;0.10;;;16.10;1.00;;;;;;4956449;29;20466;-74
2022/10/22 01:20:59;;;;;;;0.60;0.10;;;16.10;1.00;;;;;;4947594;29;20447;-74
2022/10/22 01:23:49;;;;;;;4.00;2.20;;;16.10;1.00;;;;;;4936730;29;20464;-75
2022/10/22 01:26:26;;;;;;;0.60;0.10;;;16.00;1.00;;;;;;4936922;29;20451;-75
2022/10/22 01:29:02;;;;;;;0.60;0.10;;;16.00;1.00;;;;;;4936990;29;20468;-75
2022/10/22 01:31:34;;;;;;;0.60;0.10;;;16.00;1.00;;;;;;4922916;29;20645;-74
2022/10/22 01:34:04;;;;;;;0.60;0.20;;;16.00;1.00;;;;;;4918042;29;20456;-74
2022/10/22 01:36:35;;;;;;;0.60;0.20;;;16.00;1.00;;;;;;4918265;29;20456;-76
2022/10/22 01:39:05;;;;;;;0.77;0.43;;;16.00;1.00;;;;;;4920065;29;20531;-75
2022/10/22 01:41:34;;;;;;;0.60;0.10;;;16.00;1.00;;;;;;4935205;29;20456;-75
2022/10/22 01:44:04;;;;;;;0.60;0.10;;;16.00;1.00;;;;;;4927678;29;20455;-75
2022/10/22 01:46:32;;;;;;;0.70;0.40;;;16.00;1.00;;;;;;4934447;29;20819;-74
2022/10/22 01:49:13;;;;;;;0.60;0.10;;;16.00;1.00;;;;;;4943204;29;20850;-74
2022/10/22 01:51:52;;;;;;;0.60;0.10;;;16.00;1.00;;;;;;4935976;29;20455;-74
2022/10/22 01:54:31;;;;;;;0.60;0.10;;;16.00;1.00;;;;;;4936191;29;20964;-75
2022/10/22 01:57:08;;;;;;;0.60;0.20;;;16.00;1.00;;;;;;4941708;29;20499;-74
2022/10/22 01:59:48;;;;;;;0.70;0.57;;;15.90;1.00;;;;;;4951035;29;20474;-74
2022/10/22 02:02:28;;;;;;;0.60;0.10;;;15.90;1.00;;;;;;4916962;29;20453;-74
2022/10/22 02:05:00;;;;;;;0.60;0.10;;;15.90;1.00;;;;;;4917308;29;20487;-75
2022/10/22 02:07:33;;;;;;;0.60;0.33;;;15.90;1.00;;;;;;4916064;29;20974;-76
2022/10/22 02:10:02;;;;;;;0.60;0.10;;;15.90;1.00;;;;;;4918679;29;20500;-73
2022/10/22 02:12:32;;;;;;;0.60;0.10;;;15.90;1.00;;;;;;4917226;29;20452;-76
2022/10/22 02:15:02;;;;;;;0.90;0.27;;;15.80;1.00;;;;;;4917138;29;20528;-74
2022/10/22 02:17:33;;;;;;;0.60;0.10;;;15.70;1.00;;;;;;4917047;29;20535;-75
2022/10/22 02:20:03;;;;;;;0.70;0.50;;;15.60;1.00;;;;;;4917176;29;20508;-76
2022/10/22 02:22:32;;;;;;;0.60;0.10;;;15.60;1.00;;;;;;4935139;29;20456;-74
2022/10/22 02:25:00;;;;;;;0.80;0.40;;;15.50;1.00;;;;;;4935825;29;20488;-74
2022/10/22 02:27:32;;;;;;;0.60;0.20;;;15.50;1.00;;;;;;4935779;29;20452;-75
2022/10/22 02:30:09;;;;;;;0.60;0.20;;;15.40;1.00;;;;;;5164038;27;20309;-75
2022/10/22 02:32:43;;;;;;;0.80;0.60;;;15.40;1.00;;;;;;5130407;27;20471;-76
2022/10/22 02:35:16;;;;;;;0.60;0.10;;;15.40;1.00;;;;;;5130932;28;20803;-75
2022/10/22 02:37:45;;;;;;;0.60;0.10;;;15.40;1.00;;;;;;5130458;28;20872;-75
2022/10/22 02:40:13;;;;;;;0.60;0.10;;;15.40;1.00;;;;;;5130561;27;20443;-74
2022/10/22 02:42:42;;;;;;;0.60;0.20;;;15.40;1.00;;;;;;5130763;28;20520;-75
2022/10/22 02:45:11;;;;;;;0.60;0.20;;;15.40;1.00;;;;;;5131638;28;20439;-74
2022/10/22 02:47:39;;;;;;;0.60;0.10;;;15.50;1.00;;;;;;5130864;28;20527;-75
2022/10/22 02:50:08;;;;;;;0.80;0.80;;;15.50;1.00;;;;;;5130439;28;20479;-75
2022/10/22 02:52:37;;;;;;;0.60;0.10;;;15.50;1.00;;;;;;5130340;27;20995;-75
2022/10/22 02:55:06;;;;;;;0.60;0.20;;;15.50;1.00;;;;;;5130363;28;20470;-74
2022/10/22 02:57:34;;;;;;;0.60;0.10;;;15.50;1.00;;;;;;5129825;28;20859;-75
2022/10/22 03:00:04;;;;;;;1.10;0.90;;;15.50;1.00;;;;;;5129975;28;21042;-75
2022/10/22 03:02:33;;;;;;;0.60;0.10;;;15.40;1.00;;;;;;5129921;28;20935;-75
2022/10/22 03:05:01;;;;;;;0.60;0.10;;;15.40;1.00;;;;;;5129955;28;20451;-75
2022/10/22 03:07:29;;;;;;;0.60;0.10;;;15.40;1.00;;;;;;5129846;28;20469;-75
2022/10/22 03:09:57;;;;;;;0.60;0.10;;;15.40;1.00;;;;;;5129657;28;20503;-75
2022/10/22 03:12:25;;;;;;;0.60;0.10;;;15.40;1.00;;;;;;5130177;28;20439;-75
2022/10/22 03:14:53;;;;;;;0.60;0.10;;;15.40;1.00;;;;;;5129782;28;20443;-75
2022/10/22 03:17:21;;;;;;;0.60;0.20;;;15.50;1.00;;;;;;5129521;28;20451;-75
2022/10/22 03:19:50;;;;;;;0.60;0.10;;;15.50;1.00;;;;;;5129700;28;20463;-74
2022/10/22 03:22:21;;;;;;;0.60;0.20;;;15.50;1.00;;;;;;5130110;28;20443;-75
2022/10/22 03:24:51;;;;;;;0.60;0.10;;;15.40;1.00;;;;;;5129578;28;20507;-75
2022/10/22 03:27:21;;;;;;;0.60;0.10;;;15.40;1.00;;;;;;5129421;28;20484;-75
2022/10/22 03:29:51;;;;;;;0.60;0.10;;;15.50;1.00;;;;;;5129321;28;20493;-76
2022/10/22 03:32:19;;;;;;;0.60;0.10;;;15.60;1.00;;;;;;5132046;28;20504;-74
2022/10/22 03:34:47;;;;;;;0.60;0.10;;;15.60;1.00;;;;;;5130950;28;20446;-76
2022/10/22 03:37:17;;;;;;;0.60;0.10;;;15.60;1.00;;;;;;5129195;27;20508;-75
2022/10/22 03:39:45;;;;;;;0.60;0.10;;;15.70;1.00;;;;;;5125816;28;20502;-74
2022/10/22 03:42:13;;;;;;;0.60;0.10;;;15.70;1.00;;;;;;5115299;28;20448;-74
2022/10/22 03:44:41;;;;;;;0.60;0.10;;;15.80;1.00;;;;;;5115755;28;20861;-74
2022/10/22 03:47:09;;;;;;;0.60;0.10;;;15.80;1.00;;;;;;5113710;28;20857;-74
2022/10/22 03:49:37;;;;;;;0.60;0.10;;;15.80;1.00;;;;;;5115102;28;20479;-75
2022/10/22 03:52:06;;;;;;;0.60;0.10;;;15.80;1.00;;;;;;5114890;27;20820;-74
2022/10/22 03:54:36;;;;;;;0.60;0.10;;;15.80;1.00;;;;;;5115544;28;20490;-75
2022/10/22 03:57:09;;;;;;;0.60;0.10;;;15.80;1.00;;;;;;5115100;28;20448;-74
2022/10/22 03:59:39;;;;;;;0.60;0.10;;;15.80;1.00;;;;;;5114842;28;20542;-75
2022/10/22 04:02:07;;;;;;;0.60;0.10;;;15.80;1.00;;;;;;5114028;28;20503;-76
2022/10/22 04:04:35;;;;;;;0.60;0.10;;;15.80;1.00;;;;;;5114688;28;20439;-75
2022/10/22 04:07:03;;;;;;;0.60;0.10;;;15.80;1.00;;;;;;5114938;27;20470;-76
2022/10/22 04:09:32;;;;;;;0.60;0.10;;;15.80;1.00;;;;;;5114467;28;20966;-75
2022/10/22 04:12:01;;;;;;;0.60;0.10;;;15.80;1.00;;;;;;5114456;28;21001;-76
2022/10/22 04:14:28;;;;;;;0.60;0.10;;;15.90;1.00;;;;;;5114675;28;20855;-74
2022/10/22 04:16:56;;;;;;;0.60;0.10;;;15.90;1.00;;;;;;5114634;28;20953;-74
2022/10/22 04:19:24;;;;;;;0.60;0.10;;;15.80;1.00;;;;;;5114095;28;20464;-74
2022/10/22 04:21:52;;;;;;;0.60;0.13;;;15.80;1.00;;;;;;5115099;28;20475;-75
2022/10/22 04:24:19;;;;;;;0.60;0.10;;;15.90;1.00;;;;;;5114339;28;20448;-77
2022/10/22 04:26:47;;;;;;;0.60;0.10;;;15.90;1.00;;;;;;5115257;28;20436;-74
2022/10/22 04:29:16;;;;;;;0.60;0.10;;;15.90;1.00;;;;;;5116399;28;20490;-75
2022/10/22 04:31:44;;;;;;;0.60;0.10;;;15.90;1.00;;;;;;5118452;28;20456;-76
2022/10/22 04:34:12;;;;;;;0.60;0.10;;;15.80;1.00;;;;;;5115770;28;20448;-76
2022/10/22 04:36:40;;;;;;;0.60;0.10;;;15.70;1.00;;;;;;5118658;28;20945;-75
2022/10/22 04:39:08;;;;;;;0.60;0.10;;;15.60;1.00;;;;;;5117461;28;20499;-75
2022/10/22 04:41:38;;;;;;;0.60;0.20;;;15.60;1.00;;;;;;5120742;28;20440;-74
2022/10/22 04:44:06;;;;;;;0.60;0.10;;;15.50;1.00;;;;;;5117173;28;20470;-73
2022/10/22 04:46:43;;;;;;;0.60;0.10;;;15.50;1.00;;;;;;5114531;28;20439;-74
2022/10/22 04:49:11;;;;;;;0.60;0.10;;;15.50;1.00;;;;;;5114461;28;20472;-74
2022/10/22 04:51:39;;;;;;;0.60;0.10;;;15.50;1.00;;;;;;5113561;28;20452;-74
2022/10/22 04:54:07;;;;;;;2.13;2.00;;;15.50;1.00;;;;;;5113938;28;20443;-75
2022/10/22 04:56:34;;;;;;;0.60;0.10;;;15.50;1.00;;;;;;5114109;28;20517;-76
2022/10/22 04:59:06;;;;;;;0.60;0.10;;;15.50;1.00;;;;;;5113236;28;20562;-75
2022/10/22 05:01:36;;;;;;;0.60;0.10;;;15.50;1.00;;;;;;5113312;28;20455;-74
2022/10/22 05:04:14;;;;;;;0.60;0.10;;;15.50;1.00;;;;;;5113595;28;20456;-74
2022/10/22 05:06:42;;;;;;;0.60;0.10;;;15.50;1.00;;;;;;5113550;28;20440;-75
2022/10/22 05:09:14;;;;;;;0.60;0.10;;;15.50;1.00;;;;;;5113163;28;20464;-74
2022/10/22 05:11:47;;;;;;;0.60;0.10;;;15.50;1.00;;;;;;5114520;28;20805;-74
2022/10/22 05:14:17;;;;;;;0.60;0.10;;;15.40;1.00;;;;;;5114157;28;20500;-76
2022/10/22 05:16:46;;;;;;;0.60;0.10;;;15.40;1.00;;;;;;5113702;28;20535;-74
2022/10/22 05:19:20;;;;;;;0.60;0.10;;;15.40;1.00;;;;;;5113639;28;20496;-74
2022/10/22 05:21:48;;;;;;;0.60;0.10;;;15.40;1.00;;;;;;5113850;28;20436;-74
2022/10/22 05:24:15;;;;;;;0.60;0.10;;;15.40;1.00;;;;;;5113727;28;20447;-74
2022/10/22 05:26:44;;;;;;;0.57;0.10;;;15.40;1.00;;;;;;5113607;28;20443;-74
2022/10/22 05:29:11;;;;;;;0.60;0.10;;;15.40;1.00;;;;;;5112842;28;20503;-74
2022/10/22 05:31:39;;;;;;;0.60;0.30;;;15.40;1.00;;;;;;5113460;28;20472;-74
2022/10/22 05:34:07;;;;;;;0.60;0.10;;;15.40;1.00;;;;;;5113149;28;20444;-73
2022/10/22 05:36:37;;;;;;;0.60;0.10;;;15.40;1.00;;;;;;5113265;28;20954;-75
2022/10/22 05:39:05;;;;;;;0.60;0.10;;;;;;;;;;5124901;22;20839;-74
2022/10/22 05:41:34;;;;;;;0.60;0.10;;;15.40;1.00;;;;;;5057994;28;20439;-73
2022/10/22 05:44:02;;;;;;;0.60;0.20;;;;;;;;;;5063301;28;20498;-74
2022/10/22 05:46:31;;;;;;;0.60;0.10;;;;;;;;;;5068032;28;20925;-74
2022/10/22 05:49:02;;;;;;;0.60;0.10;;;15.30;1.00;;;;;;5074276;28;20475;-74
2022/10/22 05:51:32;;;;;;;0.60;0.10;;;15.30;1.00;;;;;;5065195;28;20466;-75
2022/10/22 05:54:04;;;;;;;0.60;0.10;;;15.30;1.00;;;;;;5069291;28;20468;-74
2022/10/22 05:56:32;;;;;;;0.70;0.40;;;;;;;;;;5078214;28;20455;-76
2022/10/22 05:59:01;;;;;;;0.60;0.10;;;;;;;;;;5064212;28;20540;-75
2022/10/22 06:01:34;;;;;;;0.60;0.13;;;15.30;1.00;;;;;;5058289;28;20449;-75
2022/10/22 06:04:05;;;;;;;0.83;0.47;;;15.30;1.00;;;;;;5057573;28;20449;-75
2022/10/22 06:06:35;;;;;;;0.60;0.10;;;15.30;1.00;;;;;;5058057;28;20454;-75
2022/10/22 06:09:07;;;;;;;0.60;0.10;;;15.30;1.00;;;;;;5066396;28;20976;-75
2022/10/22 06:11:35;;;;;;;0.87;0.57;;;;;;;;;;5062575;28;21038;-74
2022/10/22 06:14:04;;;;;;;0.60;0.10;;;;;;;;;;5058453;28;20473;-74
2022/10/22 06:16:32;;;;;;;0.60;0.10;;;;;;;;;;5059373;28;20443;-74
2022/10/22 06:19:00;;;;;;;0.60;0.10;;;;;;;;;;5058360;28;20528;-75
2022/10/22 06:21:30;;;;;;;0.60;0.10;;;15.50;1.00;;;;;;5058574;28;20991;-74
2022/10/22 06:23:58;;;;;;;0.60;0.10;;;;;;;;;;5057801;28;20447;-74
2022/10/22 06:26:28;;;;;;;0.60;0.10;;;;;;;;;;5057744;28;20442;-74
2022/10/22 06:28:57;;;;;;;0.60;0.10;;;;;;;;;;5057541;28;20536;-74
2022/10/22 06:31:25;;;;;;;0.60;0.10;;;15.60;1.00;;;;;;5058160;28;20482;-74
2022/10/22 06:33:53;;;;;;;0.60;0.10;;;;;;;;;;5057859;28;20447;-75
2022/10/22 06:36:23;;;;;;;0.60;0.10;;;15.60;1.00;;;;;;5059751;28;20438;-75
2022/10/22 06:38:52;;;;;;;0.60;0.10;;;;;;;;;;5059117;28;20509;-75
2022/10/22 06:41:20;;;;;;;0.60;0.10;;;;;;;;;;5057406;28;20447;-75
2022/10/22 06:43:56;;;;;;;0.60;0.10;;;;;;;;;;5056330;28;21019;-74
2022/10/22 06:46:25;;;;;;;0.60;0.10;;;15.50;1.00;;;;;;5058099;28;20489;-75
2022/10/22 06:48:55;;;;;;;0.60;0.10;;;15.50;1.00;;;;;;5057273;28;20446;-75
2022/10/22 06:51:23;;;;;;;0.60;0.10;;;;;;;;;;5057511;28;20470;-75
2022/10/22 06:53:51;;;;;;;0.60;0.10;;;;;;;;;;5057664;28;20450;-74
2022/10/22 06:56:22;;;;;;;0.60;0.10;;;15.50;1.00;;;;;;5058994;28;20489;-74
2022/10/22 06:58:50;;;;;;;0.60;0.10;;;;;;;;;;5067341;28;20516;-75
2022/10/22 07:01:21;;;;;;;0.60;0.10;;;15.50;1.00;;;;;;5076197;28;20794;-75
2022/10/22 07:03:50;;;;;;;0.60;0.10;;;;;;;;;;5077939;28;20445;-74
2022/10/22 07:06:20;;;;;;;0.60;0.10;;;15.50;1.00;;;;;;5078505;28;20445;-74
2022/10/22 07:08:48;;;;;;;0.60;0.10;;;;;;;;;;5067812;28;20447;-74
2022/10/22 07:11:18;;;;;;;0.60;0.20;;;15.50;1.00;;;;;;5046569;28;21063;-74
2022/10/22 07:13:46;;;;;;;0.60;0.10;;;15.40;1.00;;;;;;5036478;28;20942;-74
2022/10/22 07:16:15;;;;;;;0.60;0.10;;;;;;;;;;5037679;28;20439;-74
2022/10/22 07:18:45;;;;;;;0.70;0.30;;;15.20;1.00;;;;;;5048022;28;20450;-75
2022/10/22 07:21:15;;;;;;;0.60;0.10;;;15.20;1.00;;;;;;5060808;28;20956;-75
2022/10/22 07:23:43;;;;;;;0.70;0.30;;;;;;;;;;5059917;28;20446;-74
2022/10/22 07:26:14;;;;;;;0.70;0.20;;;15.10;1.00;;;;;;5060413;28;20446;-74
2022/10/22 07:28:42;;;;;;;0.60;0.10;;;;;;;;;;5061200;28;20454;-74
2022/10/22 07:31:12;;;;;;;0.60;0.10;;;15.00;1.00;;;;;;5059545;28;20477;-75
2022/10/22 07:33:41;;;;;;;0.60;0.10;;;;;;;;;;5058129;28;20457;-75
2022/10/22 07:36:16;;;;;;;0.60;0.10;;;15.00;1.00;;;;;;5059940;28;20461;-74
2022/10/22 07:38:45;;;;;;;0.60;0.20;;;;;;;;;;5059840;28;20513;-75
2022/10/22 07:41:13;;;;;;;0.60;0.10;;;15.10;1.00;;;;;;5057829;28;20438;-75
2022/10/22 07:43:41;;;;;;;0.60;0.10;;;;;;;;;;5053132;28;20438;-75
2022/10/22 07:46:10;;;;;;;0.60;0.10;;;;;;;;;;5061226;28;20453;-74
2022/10/22 07:48:38;;;;;;;0.60;0.20;;;;;;;;;;5059829;28;20450;-74
2022/10/22 07:51:06;;;;;;;0.60;0.20;;;;;;;;;;5061834;28;20473;-75
2022/10/22 07:53:36;;;;;;;0.70;0.30;;;;;;;;;;5061811;28;20442;-75
2022/10/22 07:56:05;;;;;;;0.60;0.10;;;;;;;;;;5063462;28;20920;-74
2022/10/22 07:58:33;;;;;;;0.60;0.10;;;;;;;;;;5062172;28;20866;-76
2022/10/22 08:01:04;;;;;;;0.60;0.10;;;15.40;1.00;;;;;;5061465;28;20450;-75
2022/10/22 08:03:33;;;;;;;0.60;0.10;;;15.40;1.00;;;;;;5061092;28;20438;-74
2022/10/22 08:06:01;;;;;;;0.60;0.10;;;;;;;;;;5060824;28;20831;-74
2022/10/22 08:08:29;;;;;;;0.60;0.10;;;;;;;;;;5054411;28;20451;-75
2022/10/22 08:11:01;;;;;;;0.60;0.20;;;15.60;1.00;;;;;;5059159;28;20485;-74
2022/10/22 08:13:30;;;;;;;0.60;0.20;;;15.70;1.00;;;;;;5057664;28;20459;-74
2022/10/22 08:15:59;;;;;;;0.60;0.10;;;15.70;1.00;;;;;;5059922;28;20481;-74
2022/10/22 08:18:27;;;;;;;0.60;0.10;;;;;;;;;;5049674;28;20439;-73
2022/10/22 08:20:56;;;;;;;0.60;0.20;;;;;;;;;;5048509;28;20533;-75
2022/10/22 08:23:24;;;;;;;0.60;0.20;;;;;;;;;;5042408;28;20463;-74
2022/10/22 08:25:55;;;;;;;0.60;0.10;;;;;;;;;;5049703;28;20530;-74
2022/10/22 08:28:25;;;;;;;0.60;0.20;;;;;;;;;;5051884;28;20475;-75
2022/10/22 08:30:53;;;;;;;0.60;0.20;;;;;;;;;;5054644;28;20520;-74
2022/10/22 08:33:21;;;;;;;2.20;0.73;;;;;;;;;;5062817;28;20443;-74
2022/10/22 08:35:50;;;;;;;0.60;0.10;;;;;;;;;;5041514;28;20447;-75
2022/10/22 08:38:18;;;;;;;0.60;0.20;;;;;;;;;;5059587;28;20442;-74
2022/10/22 08:40:50;;;;;;;0.60;0.10;;;16.10;1.00;;;;;;5061937;28;20528;-74
2022/10/22 08:43:50;;;;;;;0.60;0.10;;;16.20;1.00;;;;;;5052136;28;20434;-74
2022/10/22 08:46:31;;;;;;;0.60;0.10;;;16.20;1.00;;;;;;5057331;28;20839;-75
2022/10/22 08:49:01;;;;;;;0.60;0.10;;;16.30;1.00;;;;;;5040548;28;20482;-74
2022/10/22 08:51:34;;;;;;;0.60;0.10;;;16.20;1.00;;;;;;5051444;28;20478;-75
2022/10/22 08:54:15;;;;;;;0.60;0.20;;;16.30;1.00;;;;;;5059020;28;20526;-74
2022/10/22 08:56:47;;;;;;;0.60;0.10;;;16.70;1.00;;;;;;5058484;28;20500;-73
2022/10/22 08:59:20;;;;;;;0.60;0.10;;;;;;;;;;5044292;28;20455;-75
2022/10/22 09:01:51;;;;;;;0.60;0.10;;;16.50;1.00;;;;;;5038414;28;20988;-75
2022/10/22 09:04:25;;;;;;;0.60;0.20;;;15.10;1.00;;;;;;5052223;28;20443;-75
2022/10/22 09:06:55;;;;;;;0.73;0.30;;;16.50;1.00;;;;;;5046784;28;20448;-76
2022/10/22 09:09:27;;;;;;;0.90;0.60;;;16.50;1.00;;;;;;5053225;28;20845;-76
2022/10/22 09:11:57;;;;;;;0.60;0.10;;;16.60;1.00;;;;;;5044628;28;20976;-75
2022/10/22 09:14:28;;;;;;;0.60;0.10;;;;;;;;;;5041675;28;20447;-76
2022/10/22 09:17:12;;;;;;;0.60;0.10;;;16.70;1.00;;;;;;5050080;28;20450;-74
2022/10/22 09:19:48;;;;;;;0.60;0.10;;;16.80;1.00;;;;;;5049498;28;20467;-74
2022/10/22 09:22:25;;;;;;;0.60;0.20;;;16.90;1.00;;;;;;5053617;28;20469;-76
2022/10/22 09:24:56;;;;;;;0.60;0.30;;;16.80;1.00;;;;;;5041824;28;20507;-74
2022/10/22 09:27:29;;;;;;;0.60;0.20;;;16.80;1.00;;;;;;5051100;28;20482;-76
2022/10/22 09:29:58;;;;;;;0.60;0.10;;;;;;;;;;5057522;28;20524;-74
2022/10/22 09:32:26;;;;;;;0.80;0.20;;;;;;;;;;5059470;28;20482;-75
2022/10/22 09:34:57;;;;;;;0.70;0.40;;;16.80;1.00;;;;;;5061255;28;20512;-75
2022/10/22 09:37:28;;;;;;;6.47;2.63;;;16.90;1.00;;;;;;5065587;28;20453;-75
2022/10/22 09:39:58;;;;;;;0.60;0.20;;;16.90;1.00;;;;;;5060943;28;20494;-76
2022/10/22 09:42:26;;;;;;;0.60;0.20;;;;;;;;;;5064226;28;20465;-75
2022/10/22 09:44:56;;;;;;;0.60;0.20;;;17.10;99.90;;;;;;5059771;28;20434;-75
2022/10/22 09:47:37;;;;;;;0.60;0.10;;;17.00;99.90;;;;;;5050367;28;20514;-75
2022/10/22 09:50:27;;;;;;;0.60;0.10;;;17.00;99.90;;;;;;5051640;28;20490;-77
2022/10/22 09:53:00;;;;;;;0.60;0.13;;;17.10;99.90;;;;;;5058400;28;21020;-76
2022/10/22 09:55:28;;;;;;;0.60;0.10;;;;;;;;;;5062395;28;20449;-75
2022/10/22 09:57:59;;;;;;;0.60;0.10;;;17.30;99.90;;;;;;5061350;28;20520;-75
2022/10/22 10:00:28;;;;;;;0.60;0.20;;;;;;;;;;5061871;28;20486;-77
2022/10/22 10:02:58;;;;;;;0.60;0.10;;;17.40;99.90;;;;;;5064222;28;20439;-76
2022/10/22 10:05:29;;;;;;;0.60;0.20;;;17.50;99.90;;;;;;5071397;28;20458;-76
2022/10/22 10:07:58;;;;;;;0.60;0.10;;;;;;;;;;5060762;28;20459;-76
2022/10/22 10:10:33;;;;;;;0.60;0.10;;;17.60;99.90;;;;;;5052483;28;20455;-75
2022/10/22 10:13:23;;;;;;;0.60;0.10;;;17.70;99.90;;;;;;5044312;28;20463;-76
2022/10/22 10:15:56;;;;;;;0.60;0.10;;;17.70;99.90;;;;;;5056529;28;20447;-75
2022/10/22 10:18:32;;;;;;;0.60;0.10;;;;;;;;;;5058652;28;20458;-76
2022/10/22 10:21:09;;;;;;;0.60;0.10;;;17.80;99.90;;;;;;5056447;28;20816;-74
2022/10/22 10:23:46;;;;;;;0.60;0.10;;;17.80;99.90;;;;;;5066204;28;20499;-76
2022/10/22 10:26:22;;;;;;;0.90;0.40;;;17.90;99.90;;;;;;5047534;28;20449;-77
2022/10/22 10:29:07;;;;;;;0.70;0.30;;;17.90;99.90;;;;;;5049723;28;20443;-75
2022/10/22 10:31:45;;;;;;;0.60;0.20;;;17.80;99.90;;;;;;5057989;28;20454;-75
2022/10/22 10:34:27;;;;;;;0.60;0.10;;;17.80;99.90;;;;;;5055585;28;20489;-76
2022/10/22 10:37:01;;;;;;;0.60;0.20;;;17.90;99.90;;;;;;5061037;28;20446;-76
2022/10/22 10:39:39;;;;;;;1.37;0.50;;;17.90;99.90;;;;;;5062796;28;20505;-75
2022/10/22 10:42:19;;;;;;;0.60;0.10;;;18.10;99.90;;;;;;5052099;28;20443;-75
2022/10/22 10:44:56;;;;;;;0.60;0.20;;;18.10;99.90;;;;;;5050965;28;20525;-75
2022/10/22 10:47:35;;;;;;;0.60;0.10;;;;;;;;;;5064456;28;20450;-75
2022/10/22 10:50:20;;;;;;;0.60;0.10;;;18.50;99.90;;;;;;5061520;28;20474;-75
2022/10/22 10:52:59;;;;;;;0.60;0.20;;;18.50;99.90;;;;;;5070599;28;20543;-75
2022/10/22 10:55:34;;;;;;;0.60;0.10;;;18.50;99.90;;;;;;5068923;28;20557;-74
2022/10/22 10:58:13;;;;;;;0.60;0.10;;;18.60;99.90;;;;;;5069497;28;20529;-75
2022/10/22 11:00:47;;;;;;;0.60;0.10;;;18.60;99.90;;;;;;5068955;28;20493;-75
2022/10/22 11:03:53;;;;;;;0.60;0.10;;;18.60;99.90;;;;;;5071175;28;20524;-75
2022/10/22 11:06:23;;;;;;;0.60;0.10;;;18.60;99.90;;;;;;5072042;28;20466;-75
2022/10/22 11:08:58;;;;;;;40.53;25.13;;;18.60;99.90;;;;;;5065803;28;20478;-75
2022/10/22 11:11:32;;;;;;;0.80;0.53;;;18.50;99.90;;;;;;5054736;28;20447;-75
2022/10/22 11:14:06;;;;;;;0.60;0.20;;;18.60;99.90;;;;;;5046309;28;20478;-75
2022/10/22 11:16:39;;;;;;;0.60;0.10;;;18.60;99.90;;;;;;5049292;28;20450;-76
2022/10/22 11:19:12;;;;;;;0.60;0.10;;;18.60;99.90;;;;;;5054194;28;20497;-75
2022/10/22 11:22:03;;;;;;;0.70;0.20;;;18.60;99.90;;;;;;5055051;28;20452;-75
2022/10/22 11:24:36;;;;;;;0.60;0.10;;;;;;;;;;5050932;28;20898;-75
2022/10/22 11:27:11;;;;;;;0.60;0.10;;;18.50;99.90;;;;;;5058092;28;20461;-75
2022/10/22 11:29:43;;;;;;;0.70;0.43;;;18.50;99.90;;;;;;5067377;28;20470;-76
2022/10/22 11:32:14;;;;;;;0.60;0.10;;;18.50;99.90;;;;;;5067393;28;20426;-75
2022/10/22 11:34:47;;;;;;;0.60;0.20;;;18.50;99.90;;;;;;5069174;28;20505;-77
2022/10/22 11:37:17;;;;;;;0.60;0.20;;;;;;;;;;5061833;28;20458;-75
2022/10/22 11:39:49;;;;;;;0.60;0.10;;;18.50;99.90;;;;;;5072749;23;20466;-75
2022/10/22 11:42:20;;;;;;;0.60;0.10;;;18.50;99.90;;;;;;5072682;28;20442;-79
2022/10/22 11:44:59;;;;;;;0.60;0.20;;;18.60;99.90;;;;;;5072210;28;20515;-75
2022/10/22 11:47:31;;;;;;;2.47;1.80;;;18.70;99.90;;;;;;5075594;28;20487;-78
2022/10/22 11:50:17;;;;;;;0.60;0.10;;;18.70;99.90;;;;;;5069314;28;20461;-78
2022/10/22 11:52:54;;;;;;;0.60;0.20;;;18.70;99.90;;;;;;5087124;28;20442;-78
2022/10/22 11:55:33;;;;;;;0.60;0.10;;;18.80;99.90;;;;;;5085631;28;20445;-78
2022/10/22 11:58:02;;;;;;;0.60;0.10;;;18.90;99.90;;;;;;5065709;28;20462;-75
2022/10/22 12:00:39;;;;;;;0.60;0.10;;;19.10;99.90;;;;;;5059126;28;20466;-78
2022/10/22 12:03:17;;;;;;;0.60;0.10;;;19.20;99.90;;;;;;5056200;28;20450;-78
2022/10/22 12:05:45;;;;;;;0.60;0.10;;;19.20;99.90;;;;;;5058001;28;20818;-76
2022/10/22 12:08:25;;;;;;;0.60;0.13;;;19.30;99.90;;;;;;5055402;28;20485;-78
2022/10/22 12:11:16;;;;;;;0.60;0.20;;;19.50;99.90;;;;;;5049654;28;20486;-76
2022/10/22 12:14:11;;;;;;;0.60;0.20;;;19.50;99.90;;;;;;5054727;28;20474;-79
2022/10/22 12:16:43;;;;;;;0.60;0.20;;;19.40;99.90;;;;;;5052180;28;20462;-74
2022/10/22 12:19:28;;;;;;;0.60;0.10;;;19.10;99.90;;;;;;5051302;28;20430;-78
2022/10/22 12:21:59;;;;;;;0.60;0.20;;;19.10;99.90;;;;;;5057705;28;20482;-76
2022/10/22 12:24:34;;;;;;;0.60;0.10;;;19.00;99.90;;;;;;5057991;28;20454;-79
2022/10/22 12:27:02;;;;;;;0.60;0.20;;;19.00;99.90;;;;;;5061517;28;20473;-78
2022/10/22 12:29:33;;;;;;;0.60;0.10;;;18.90;99.90;;;;;;5060704;28;20454;-78
2022/10/22 12:32:04;;;;;;;0.60;0.10;;;18.90;99.90;;;;;;5058469;28;20444;-77
2022/10/22 12:34:32;;;;;;;0.60;0.10;;;19.00;99.90;;;;;;5053332;28;20493;-76
2022/10/22 12:36:59;;;;;;;0.80;0.47;;;19.20;99.90;;;;;;5049369;28;20450;-76
2022/10/22 12:39:28;;;;;;;0.60;0.10;;;19.30;99.90;;;;;;5060326;28;20497;-76
2022/10/22 12:41:58;;;;;;;0.60;0.10;;;;;;;;;;5053100;28;20509;-74
2022/10/22 12:44:32;;;;;;;0.60;0.20;;;19.30;99.90;;;;;;5044863;28;20836;-76
2022/10/22 12:47:00;;;;;;;0.60;0.10;;;19.30;99.90;;;;;;5045486;28;20462;-75
2022/10/22 12:49:35;;;;;;;0.60;0.10;;;19.40;99.90;;;;;;5037094;28;20443;-77
2022/10/22 12:52:05;;;;;;;0.60;0.10;;;19.40;99.90;;;;;;5038953;28;20449;-78
2022/10/22 12:54:39;;;;;;;0.60;0.10;;;19.40;99.90;;;;;;5042926;28;20983;-80
2022/10/22 12:57:14;;;;;;;0.60;0.10;;;19.50;99.90;;;;;;5048794;28;20438;-76
2022/10/22 12:59:44;;;;;;;0.60;0.10;;;19.60;99.90;;;;;;5053416;28;20462;-78
2022/10/22 13:02:21;;;;;;;0.60;0.10;;;19.60;99.90;;;;;;5057697;28;20481;-77
2022/10/22 13:05:21;;;;;;;0.60;0.10;;;19.70;99.90;;;;;;5056962;28;20438;-79
2022/10/22 13:07:50;;;;;;;1.53;0.30;;;19.80;99.90;;;;;;5056800;28;20446;-76
2022/10/22 13:10:23;;;;;;;0.60;0.10;;;19.70;99.90;;;;;;5070841;28;20443;-74
2022/10/22 13:12:56;;;;;;;0.60;0.20;;;19.60;99.90;;;;;;5072849;28;20441;-79
2022/10/22 13:15:37;;;;;;;0.60;0.20;;;19.60;99.90;;;;;;5067615;28;20566;-78
2022/10/22 13:18:15;;;;;;;0.60;0.40;;;19.60;99.90;;;;;;5055094;28;20473;-78
2022/10/22 13:20:54;;;;;;;0.60;0.10;;;19.70;99.90;;;;;;5056987;28;20458;-77
2022/10/22 13:23:27;;;;;;;0.60;0.10;;;19.80;99.90;;;;;;5057288;28;20840;-79
2022/10/22 13:26:01;;;;;;;0.60;0.10;;;19.80;99.90;;;;;;5056506;28;20512;-75
2022/10/22 13:28:32;;;;;;;0.60;0.20;;;19.90;99.90;;;;;;5057355;28;20508;-79
2022/10/22 13:31:01;;;;;;;0.80;0.50;;;19.90;99.90;;;;;;5053994;28;20470;-77
2022/10/22 13:33:33;;;;;;;0.70;0.40;;;19.90;99.90;;;;;;5047148;28;20967;-76
2022/10/22 13:36:01;;;;;;;0.70;0.37;;;19.80;99.90;;;;;;5058368;28;20450;-80